Time;durP1;ratioP1;P1;durP2;ratioP2;P2;SDS_P1;SDS_P2;PMS_P1;PMS_P2;Temp;Humidity;BMP_temperature;BMP_pressure;BME280_temperature;BME280_humidity;BME280_pressure;Samples;Min_cycle;Max_cycle;Signal;HPM_P1;HPM_P2
2022/05/17 00:01:24;;;;;;;17.40;6.80;;;;;;;12.15;45.32;99206.31;105202;1285;108383;-66
2022/05/17 00:03:54;;;;;;;20.80;6.70;;;;;;;12.12;45.39;99204.39;105274;1284;99129;-66
2022/05/17 00:06:23;;;;;;;18.30;7.50;;;;;;;12.09;45.50;99197.68;105224;1285;96793;-65
2022/05/17 00:08:51;;;;;;;18.30;6.50;;;;;;;12.07;45.57;99192.48;105254;1285;113163;-67
2022/05/17 00:11:19;;;;;;;17.20;6.80;;;;;;;12.06;45.69;99189.00;105320;1284;99234;-66
2022/05/17 00:13:47;;;;;;;22.50;7.10;;;;;;;12.04;45.72;99181.20;105298;1284;108774;-66
2022/05/17 00:16:22;;;;;;;16.30;6.30;;;;;;;12.01;45.89;99182.48;105321;1284;99932;-67
2022/05/17 00:18:55;;;;;;;18.50;6.40;;;;;;;11.99;45.96;99181.92;105242;1285;99321;-66
2022/05/17 00:21:27;;;;;;;16.10;6.00;;;;;;;11.98;46.01;99178.61;105243;1285;113145;-65
2022/05/17 00:23:55;;;;;;;16.40;6.40;;;;;;;11.97;46.08;99181.89;105299;1285;99268;-64
2022/05/17 00:26:28;;;;;;;18.10;6.30;;;;;;;11.96;46.04;99179.98;105376;1284;108247;-67
2022/05/17 00:28:56;;;;;;;18.30;7.40;;;;;;;11.94;46.26;99182.23;105407;1284;99338;-67
2022/05/17 00:31:26;;;;;;;16.50;6.60;;;;;;;11.94;46.24;99181.21;105429;1284;99261;-68
2022/05/17 00:33:57;;;;;;;16.80;6.40;;;;;;;11.92;46.46;99183.64;105394;1284;113490;-66
2022/05/17 00:36:34;;;;;;;15.90;6.40;;;;;;;11.90;46.52;99184.35;105349;1284;97951;-66
2022/05/17 00:39:06;;;;;;;15.90;6.40;;;;;;;11.88;46.59;99183.26;105254;1284;108530;-67
2022/05/17 00:41:34;;;;;;;17.40;7.10;;;;;;;11.86;46.65;99180.37;105269;1285;99298;-67
2022/05/17 00:47:12;;;;;;;20.20;7.80;;;;;;;11.83;46.99;99182.39;105242;1284;113190;-67
2022/05/17 00:49:51;;;;;;;17.80;7.00;;;;;;;11.81;47.12;99183.78;105307;1284;98359;-67
2022/05/17 00:52:43;;;;;;;19.30;6.60;;;;;;;11.81;47.31;99182.38;105115;1285;108394;-67
2022/05/17 00:55:17;;;;;;;20.00;7.30;;;;;;;11.81;47.46;99180.89;105102;1285;99356;-67
2022/05/17 00:58:00;;;;;;;18.40;7.70;;;;;;;11.82;47.38;99178.86;105309;1285;99402;-67
2022/05/17 01:00:34;;;;;;;18.00;7.10;;;;;;;11.83;47.55;99177.63;105220;1285;112747;-67
2022/05/17 01:03:13;;;;;;;21.90;7.80;;;;;;;11.83;47.63;99178.96;105347;1284;97824;-66
2022/05/17 01:05:50;;;;;;;22.60;8.10;;;;;;;11.84;47.65;99178.42;105108;1284;107921;-68
2022/05/17 01:08:24;;;;;;;19.40;7.80;;;;;;;11.84;47.73;99178.92;105122;1286;99378;-67
2022/05/17 01:10:52;;;;;;;17.90;7.70;;;;;;;11.84;47.74;99173.61;105139;1284;99317;-67
2022/05/17 01:16:20;;;;;;;19.00;7.70;;;;;;;11.86;47.94;99175.23;105270;1285;99340;-68
2022/05/17 01:18:54;;;;;;;20.30;8.20;;;;;;;11.86;48.04;99171.87;105391;1284;107766;-66
2022/05/17 01:21:26;;;;;;;;;;;;;;;11.86;48.11;99166.32;105354;1284;99464;-64
2022/05/17 01:23:54;;;;;;;19.70;6.60;;;;;;;11.84;48.18;99167.02;105444;1284;99201;-66
2022/05/17 01:26:34;;;;;;;19.20;7.80;;;;;;;11.85;48.28;99161.59;105382;1284;113484;-67
2022/05/17 01:29:07;;;;;;;18.10;7.00;;;;;;;11.87;48.36;99161.13;105197;1284;99280;-65
2022/05/17 01:31:40;;;;;;;19.10;7.70;;;;;;;11.87;48.55;99159.15;105199;1285;107590;-67
2022/05/17 01:34:11;;;;;;;16.30;6.90;;;;;;;11.88;48.47;99154.83;105359;1284;99793;-67
2022/05/17 01:36:42;;;;;;;18.50;7.00;;;;;;;11.89;48.49;99148.15;105379;1284;99634;-65
2022/05/17 01:39:12;;;;;;;15.80;6.90;;;;;;;11.89;48.53;99144.61;105327;1284;112385;-66
2022/05/17 01:41:40;;;;;;;16.60;7.10;;;;;;;11.90;48.56;99144.35;105334;1284;96561;-66
2022/05/17 01:44:13;;;;;;;16.10;6.30;;;;;;;11.90;48.59;99142.77;105327;1284;108159;-66
2022/05/17 01:46:41;;;;;;;17.70;7.30;;;;;;;11.88;48.69;99137.55;105120;1285;99255;-66
2022/05/17 01:49:20;;;;;;;20.20;7.90;;;;;;;11.85;48.87;99137.95;105370;1284;99227;-66
2022/05/17 01:51:53;;;;;;;21.30;7.10;;;;;;;11.83;48.88;99135.27;105417;1284;113240;-67
2022/05/17 01:54:21;;;;;;;18.70;7.10;;;;;;;11.82;48.84;99134.33;105455;1284;97871;-68
2022/05/17 01:56:57;;;;;;;19.00;6.70;;;;;;;11.80;48.79;99133.97;105415;1284;108439;-66
2022/05/17 01:59:25;;;;;;;19.40;7.00;;;;;;;11.77;48.93;99130.80;105381;1284;96641;-67
2022/05/17 02:01:55;;;;;;;19.90;6.90;;;;;;;11.74;49.00;99128.86;105337;1284;99258;-67
2022/05/17 02:04:24;;;;;;;16.40;6.10;;;;;;;11.72;49.07;99127.39;105408;1283;113236;-67
2022/05/17 02:06:52;;;;;;;17.40;6.80;;;;;;;11.72;49.18;99125.27;105359;1284;98371;-67
2022/05/17 02:09:25;;;;;;;18.70;7.20;;;;;;;11.71;49.33;99125.19;105310;1284;108538;-66
2022/05/17 02:11:54;;;;;;;17.40;6.90;;;;;;;11.69;49.26;99122.33;105383;1284;100146;-68
2022/05/17 02:14:30;;;;;;;18.10;7.10;;;;;;;11.68;49.46;99126.34;105347;1284;99212;-69
2022/05/17 02:17:03;;;;;;;19.90;6.90;;;;;;;11.67;49.44;99127.65;105319;1284;113091;-67
2022/05/17 02:19:36;;;;;;;15.10;6.00;;;;;;;11.65;49.54;99126.92;105348;1284;99296;-66
2022/05/17 02:22:04;;;;;;;18.20;6.50;;;;;;;11.62;49.69;99124.81;105336;1284;108434;-65
2022/05/17 02:24:40;;;;;;;17.40;6.90;;;;;;;11.59;49.74;99130.52;105130;1285;96665;-67
2022/05/17 02:27:08;;;;;;;17.20;6.40;;;;;;;11.57;49.67;99126.98;105370;1284;99243;-66
2022/05/17 02:29:40;;;;;;;18.30;7.10;;;;;;;11.56;49.80;99122.74;105337;1284;113281;-67
2022/05/17 02:32:14;;;;;;;19.00;7.30;;;;;;;11.57;49.83;99121.07;105312;1284;99334;-67
2022/05/17 02:34:47;;;;;;;;;;;;;;;11.58;49.93;99121.05;105290;1285;107664;-68
2022/05/17 02:37:17;;;;;;;18.00;6.90;;;;;;;11.55;50.15;99119.80;105278;1285;99966;-65
2022/05/17 02:39:46;;;;;;;18.20;7.50;;;;;;;11.56;50.10;99118.00;105288;1285;96674;-67
2022/05/17 02:42:19;;;;;;;17.00;6.70;;;;;;;11.56;50.20;99117.83;105260;1285;112653;-65
2022/05/17 02:44:50;;;;;;;17.30;6.50;;;;;;;11.57;50.27;99120.41;105279;1285;99149;-65
2022/05/17 02:47:17;;;;;;;19.20;7.30;;;;;;;11.56;50.22;99119.55;105281;1285;108276;-66
2022/05/17 02:49:46;;;;;;;16.20;6.20;;;;;;;11.56;50.41;99118.72;105313;1285;99338;-65
2022/05/17 02:52:22;;;;;;;17.40;6.50;;;;;;;11.55;50.43;99117.87;105408;1284;99233;-68
2022/05/17 02:54:50;;;;;;;16.70;7.00;;;;;;;11.54;50.42;99114.02;105131;1284;112748;-67
2022/05/17 02:57:23;;;;;;;18.10;7.10;;;;;;;11.54;50.60;99114.96;105274;1285;97063;-65
2022/05/17 02:59:51;;;;;;;18.40;7.20;;;;;;;11.52;50.64;99114.55;105232;1284;107342;-67
2022/05/17 03:02:19;;;;;;;20.10;7.50;;;;;;;11.50;50.61;99115.92;105262;1283;99433;-67
2022/05/17 03:04:49;;;;;;;19.10;7.60;;;;;;;11.49;50.54;99116.17;105262;1284;96657;-69
2022/05/17 03:07:22;;;;;;;19.00;7.60;;;;;;;11.47;50.58;99111.74;105252;1285;113399;-64
2022/05/17 03:09:50;;;;;;;19.60;7.60;;;;;;;11.43;50.75;99115.40;105206;1284;99312;-66
2022/05/17 03:12:19;;;;;;;19.90;8.00;;;;;;;11.41;50.79;99117.31;105273;1284;108078;-65
2022/05/17 03:14:47;;;;;;;18.60;7.80;;;;;;;11.39;50.80;99123.68;105262;1283;99347;-66
2022/05/17 03:17:17;;;;;;;21.50;7.80;;;;;;;11.36;50.96;99127.10;105205;1284;100028;-66
2022/05/17 03:19:45;;;;;;;20.60;8.00;;;;;;;11.34;50.99;99132.95;105307;1284;112762;-67
2022/05/17 03:22:13;;;;;;;17.80;7.20;;;;;;;11.32;51.12;99132.90;105286;1284;99120;-65
2022/05/17 03:24:41;;;;;;;20.10;7.90;;;;;;;11.30;51.14;99130.52;105296;1284;107773;-68
2022/05/17 03:27:30;;;;;;;22.80;7.70;;;;;;;11.28;51.34;99133.84;105299;1284;99443;-67
2022/05/17 03:29:58;;;;;;;17.70;7.70;;;;;;;11.27;51.36;99131.11;105308;1284;99183;-68
2022/05/17 03:32:26;;;;;;;18.90;7.50;;;;;;;11.26;51.34;99129.82;105277;1284;113420;-65
2022/05/17 03:34:55;;;;;;;17.80;7.80;;;;;;;11.24;51.39;99129.45;105240;1284;99254;-67
2022/05/17 03:37:23;;;;;;;20.30;7.70;;;;;;;11.23;51.48;99127.73;105238;1284;108372;-65
2022/05/17 03:39:52;;;;;;;21.00;7.80;;;;;;;11.23;51.43;99127.52;105275;1284;99251;-66
2022/05/17 03:42:20;;;;;;;19.40;7.70;;;;;;;11.22;51.59;99128.46;105310;1284;99264;-67
2022/05/17 03:44:49;;;;;;;20.00;7.50;;;;;;;11.21;51.62;99130.70;104669;1284;891448;-68
2022/05/17 03:47:17;;;;;;;18.90;7.30;;;;;;;11.20;51.72;99132.36;105295;1284;97769;-66
2022/05/17 03:49:45;;;;;;;17.20;6.70;;;;;;;11.21;51.72;99133.16;105261;1284;108436;-65
2022/05/17 03:52:14;;;;;;;16.70;6.90;;;;;;;11.24;51.87;99135.63;105309;1284;99232;-67
2022/05/17 03:54:43;;;;;;;19.60;7.00;;;;;;;11.26;51.96;99135.80;105366;1284;99252;-67
2022/05/17 03:57:11;;;;;;;20.10;6.90;;;;;;;11.29;52.13;99138.09;105289;1284;113734;-68
2022/05/17 03:59:44;;;;;;;16.40;6.70;;;;;;;11.33;52.30;99139.41;105288;1284;99250;-67
2022/05/17 04:02:12;;;;;;;18.40;6.90;;;;;;;11.37;52.18;99143.23;105277;1284;108410;-67
2022/05/17 04:04:41;;;;;;;19.10;7.20;;;;;;;11.40;52.36;99141.70;105285;1284;99340;-67
2022/05/17 04:07:09;;;;;;;21.30;7.70;;;;;;;11.44;52.25;99143.73;105337;1284;96539;-69
2022/05/17 04:09:37;;;;;;;20.50;8.30;;;;;;;11.46;52.43;99141.02;105309;1284;113732;-67
2022/05/17 04:12:07;;;;;;;17.70;6.70;;;;;;;11.51;52.57;99145.52;105377;1284;99221;-66
2022/05/17 04:14:35;;;;;;;22.60;8.70;;;;;;;11.55;52.76;99147.51;105281;1284;107816;-67
2022/05/17 04:17:05;;;;;;;18.80;7.60;;;;;;;11.59;52.60;99146.15;105304;1284;99207;-68
2022/05/17 04:19:35;;;;;;;17.20;7.10;;;;;;;11.63;52.67;99144.77;105327;1284;99152;-66
2022/05/17 04:22:08;;;;;;;16.60;7.10;;;;;;;11.68;52.73;99146.52;105215;1284;113137;-67
2022/05/17 04:24:41;;;;;;;18.80;7.10;;;;;;;11.72;52.80;99141.07;105319;1284;99385;-67
2022/05/17 04:27:14;;;;;;;20.10;7.80;;;;;;;11.76;52.90;99139.56;105298;1284;110997;-69
2022/05/17 04:29:42;;;;;;;20.40;8.20;;;;;;;11.81;52.95;99141.30;105291;1284;97916;-67
2022/05/17 04:32:11;;;;;;;18.90;7.80;;;;;;;11.86;52.96;99142.67;105306;1284;99325;-67
2022/05/17 04:34:42;;;;;;;17.40;7.30;;;;;;;11.92;53.10;99141.15;105319;1285;113400;-66
2022/05/17 04:37:10;;;;;;;19.00;7.80;;;;;;;11.98;53.11;99145.37;105348;1284;98740;-66
2022/05/17 04:39:39;;;;;;;20.10;8.40;;;;;;;12.02;53.39;99146.80;105361;1284;110443;-65
2022/05/17 04:42:09;;;;;;;20.30;7.70;;;;;;;12.08;53.28;99142.50;105333;1285;96623;-66
2022/05/17 04:44:37;;;;;;;17.70;7.50;;;;;;;12.13;53.56;99140.86;105391;1284;99353;-67
2022/05/17 04:47:11;;;;;;;18.50;7.50;;;;;;;12.19;53.60;99144.67;105414;1284;112712;-66
2022/05/17 04:49:39;;;;;;;16.50;6.40;;;;;;;12.23;53.60;99140.95;105417;1284;99356;-67
2022/05/17 04:52:08;;;;;;;16.30;6.10;;;;;;;12.27;53.72;99145.44;105312;1284;108132;-66
2022/05/17 04:54:36;;;;;;;19.70;6.90;;;;;;;12.31;53.70;99138.41;105319;1284;99271;-67
2022/05/17 04:57:05;;;;;;;18.00;5.60;;;;;;;12.34;53.70;99134.25;105309;1284;99182;-66
2022/05/17 04:59:33;;;;;;;12.00;4.60;;;;;;;12.36;53.38;99134.05;105402;1283;111400;-67
2022/05/17 05:02:02;;;;;;;15.70;5.00;;;;;;;12.40;53.53;99136.50;105318;1284;99258;-68
2022/05/17 05:04:30;;;;;;;15.00;5.60;;;;;;;12.43;53.59;99136.21;105341;1284;108370;-69
2022/05/17 05:06:59;;;;;;;13.30;5.50;;;;;;;12.46;53.74;99139.35;105353;1284;99347;-67
2022/05/17 05:09:28;;;;;;;13.90;5.60;;;;;;;12.49;53.74;99138.02;105351;1284;99273;-66
2022/05/17 05:11:58;;;;;;;16.00;5.70;;;;;;;12.53;53.78;99138.27;105339;1284;112989;-68
2022/05/17 05:14:26;;;;;;;14.90;6.40;;;;;;;12.56;53.82;99132.32;105341;1284;99311;-64
2022/05/17 05:16:57;;;;;;;15.90;5.90;;;;;;;12.60;53.97;99132.86;105340;1284;108450;-68
2022/05/17 05:19:27;;;;;;;20.90;7.40;;;;;;;12.64;53.83;99127.40;105339;1284;99230;-64
2022/05/17 05:21:55;;;;;;;23.00;7.70;;;;;;;12.69;53.81;99130.95;105348;1284;100398;-67
2022/05/17 05:24:24;;;;;;;21.70;6.80;;;;;;;12.75;53.85;99134.23;105304;1284;113433;-62
2022/05/17 05:26:52;;;;;;;20.80;6.70;;;;;;;12.81;53.75;99142.06;105309;1284;99320;-61
2022/05/17 05:29:20;;;;;;;18.00;6.90;;;;;;;12.90;53.98;99143.66;105271;1284;108897;-61
2022/05/17 05:31:48;;;;;;;21.90;8.30;;;;;;;13.00;53.86;99143.23;105286;1284;99321;-63
2022/05/17 05:34:18;;;;;;;16.50;5.80;;;;;;;13.09;54.01;99140.71;105339;1284;97092;-64
2022/05/17 05:36:48;;;;;;;22.00;5.90;;;;;;;13.16;53.94;99143.91;105307;1284;113447;-67
2022/05/17 05:39:16;;;;;;;19.50;6.10;;;;;;;13.22;53.85;99146.94;105258;1284;99260;-62
2022/05/17 05:41:44;;;;;;;13.80;5.70;;;;;;;13.30;54.05;99143.64;105313;1284;108417;-63
2022/05/17 05:44:13;;;;;;;21.30;6.50;;;;;;;13.38;54.13;99138.31;105313;1284;97885;-63
2022/05/17 05:46:41;;;;;;;16.60;6.60;;;;;;;13.46;54.02;99134.54;105319;1284;99252;-65
2022/05/17 05:49:10;;;;;;;19.10;7.20;;;;;;;13.53;53.99;99135.67;105306;1284;113081;-63
2022/05/17 05:51:38;;;;;;;21.40;7.20;;;;;;;13.64;54.05;99143.66;105267;1284;99227;-63
2022/05/17 05:54:08;;;;;;;18.70;7.20;;;;;;;13.74;54.11;99138.72;105262;1284;108447;-65
2022/05/17 05:56:39;;;;;;;21.30;6.80;;;;;;;13.85;54.22;99146.03;105285;1284;99343;-62
2022/05/17 05:59:07;;;;;;;17.90;6.80;;;;;;;13.94;54.15;99147.27;105339;1284;96590;-62
2022/05/17 06:01:37;;;;;;;18.70;6.40;;;;;;;14.05;54.15;99153.77;105304;1284;113500;-65
2022/05/17 06:04:06;;;;;;;20.20;6.70;;;;;;;14.17;54.14;99148.52;105267;1285;96657;-65
2022/05/17 06:06:37;;;;;;;17.20;6.80;;;;;;;14.29;54.13;99154.91;105291;1284;107577;-65
2022/05/17 06:09:04;;;;;;;15.80;6.70;;;;;;;14.40;54.16;99147.77;105270;1284;99302;-66
2022/05/17 06:11:32;;;;;;;17.40;6.40;;;;;;;14.50;54.10;99143.45;105262;1284;99249;-66
2022/05/17 06:14:01;;;;;;;20.00;7.20;;;;;;;14.59;54.08;99139.83;105283;1284;113325;-66
2022/05/17 06:16:29;;;;;;;20.10;7.00;;;;;;;14.65;54.07;99147.37;105218;1285;99255;-66
2022/05/17 06:18:58;;;;;;;15.50;6.00;;;;;;;14.70;54.07;99145.69;105219;1284;107795;-65
2022/05/17 06:21:27;;;;;;;17.10;5.90;;;;;;;14.76;54.07;99149.99;105202;1285;99350;-68
2022/05/17 06:23:54;;;;;;;13.20;5.20;;;;;;;14.82;53.90;99150.35;105236;1285;99341;-67
2022/05/17 06:26:23;;;;;;;17.90;5.40;;;;;;;14.88;54.01;99147.18;104932;1285;113366;-68
2022/05/17 06:28:51;;;;;;;16.10;5.00;;;;;;;14.94;54.08;99140.03;105244;1285;99348;-66
2022/05/17 06:31:19;;;;;;;13.30;4.50;;;;;;;14.98;53.93;99133.21;105175;1284;108357;-66
2022/05/17 06:33:48;;;;;;;13.30;4.40;;;;;;;15.03;53.78;99133.11;105256;1284;99252;-68
2022/05/17 06:36:16;;;;;;;13.80;4.90;;;;;;;15.10;53.80;99129.46;105386;1284;99225;-68
2022/05/17 06:39:08;;;;;;;9.00;4.00;;;;;;;15.23;53.62;99123.66;105330;1284;113387;-68
2022/05/17 06:41:38;;;;;;;14.60;4.50;;;;;;;15.38;53.54;99122.81;105338;1284;99938;-69
2022/05/17 06:44:07;;;;;;;11.90;4.10;;;;;;;15.53;53.64;99125.98;105292;1284;107448;-68
2022/05/17 06:46:35;;;;;;;13.60;4.80;;;;;;;15.67;53.69;99124.88;105269;1284;99578;-67
2022/05/17 06:49:04;;;;;;;15.80;4.40;;;;;;;15.83;53.61;99128.73;105273;1284;96644;-69
2022/05/17 06:51:35;;;;;;;12.00;4.30;;;;;;;16.02;53.61;99135.77;105282;1284;113253;-70
2022/05/17 06:54:08;;;;;;;10.90;3.90;;;;;;;16.17;53.49;99139.16;105299;1285;99267;-68
2022/05/17 06:56:38;;;;;;;12.10;3.90;;;;;;;16.37;53.24;99139.77;105053;1284;107637;-67
2022/05/17 06:59:07;;;;;;;11.30;3.60;;;;;;;16.71;53.22;99136.00;105232;1284;99323;-67
2022/05/17 07:01:39;;;;;;;16.80;5.70;;;;;;;17.64;52.23;99136.16;105309;1285;98498;-67
2022/05/17 07:04:10;;;;;;;24.90;11.30;;;;;;;19.51;51.01;99134.83;105284;1284;113398;-67
2022/05/17 07:06:40;;;;;;;12.50;3.90;;;;;;;21.44;50.43;99129.25;105248;1284;96737;-68
2022/05/17 07:09:12;;;;;;;11.00;3.40;;;;;;;23.31;50.33;99126.52;105209;1284;108433;-66
2022/05/17 07:14:29;;;;;;;9.90;2.50;;;;;;;26.10;50.11;99127.60;105268;1284;97710;-67
2022/05/17 07:17:02;;;;;;;4.40;2.00;;;;;;;27.00;50.01;99126.67;105223;1284;112861;-67
2022/05/17 07:19:35;;;;;;;4.70;2.00;;;;;;;27.06;50.32;99129.50;105278;1284;99339;-67
2022/05/17 07:22:06;;;;;;;8.30;2.30;;;;;;;26.97;50.11;99129.00;105268;1284;108424;-67
2022/05/17 07:24:35;;;;;;;12.70;3.50;;;;;;;26.86;49.93;99122.01;105298;1284;99199;-68
2022/05/17 07:27:12;;;;;;;6.60;2.20;;;;;;;26.93;49.01;99121.08;105267;1284;100072;-68
2022/05/17 07:29:49;;;;;;;4.70;1.70;;;;;;;26.92;48.58;99124.86;105111;1285;113460;-67
2022/05/17 07:32:17;;;;;;;4.40;1.80;;;;;;;26.58;48.93;99127.02;105260;1284;99327;-69
2022/05/17 07:34:47;;;;;;;6.90;2.20;;;;;;;26.26;48.77;99128.71;105203;1285;108734;-75
2022/05/17 07:37:16;;;;;;;8.10;2.70;;;;;;;26.13;48.32;99128.98;105225;1284;99293;-66
2022/05/17 07:39:44;;;;;;;8.10;2.60;;;;;;;26.17;48.00;99126.54;105311;1284;99214;-67
2022/05/17 07:42:13;;;;;;;9.30;2.60;;;;;;;26.06;47.29;99123.95;105267;1284;112671;-68
2022/05/17 07:44:41;;;;;;;9.60;2.60;;;;;;;25.82;47.33;99123.23;105307;1284;99276;-71
2022/05/17 07:47:15;;;;;;;4.30;2.10;;;;;;;25.78;46.69;99122.73;105281;1284;107813;-72
2022/05/17 07:49:44;;;;;;;10.20;2.30;;;;;;;26.01;46.32;99128.64;105306;1284;99272;-74
2022/05/17 07:52:12;;;;;;;7.40;2.00;;;;;;;26.27;45.96;99130.02;105324;1284;99227;-74
2022/05/17 07:54:41;;;;;;;6.40;2.00;;;;;;;26.50;45.62;99129.58;105247;1285;112775;-72
2022/05/17 07:57:09;;;;;;;5.80;2.10;;;;;;;26.55;45.41;99130.06;105267;1285;99288;-71
2022/05/17 07:59:37;;;;;;;8.10;2.20;;;;;;;26.62;45.04;99131.77;105269;1284;108169;-72
2022/05/17 08:02:06;;;;;;;9.40;2.50;;;;;;;27.06;44.52;99133.02;105263;1285;97337;-68
2022/05/17 08:04:34;;;;;;;13.60;8.30;;;;;;;27.41;44.14;99132.73;105272;1284;98299;-65
2022/05/17 08:07:03;;;;;;;38.20;24.90;;;;;;;27.76;43.99;99133.75;105133;1284;114496;-68
2022/05/17 08:09:33;;;;;;;7.80;3.10;;;;;;;28.21;43.52;99131.43;105253;1284;99455;-67
2022/05/17 08:12:06;;;;;;;4.40;2.00;;;;;;;28.74;43.24;99123.92;105275;1284;108146;-68
2022/05/17 08:14:38;;;;;;;5.50;1.90;;;;;;;29.07;43.03;99114.45;105229;1284;97643;-67
2022/05/17 08:17:08;;;;;;;7.40;1.90;;;;;;;29.44;42.49;99112.13;105257;1284;99301;-66
2022/05/17 08:19:38;;;;;;;6.70;2.20;;;;;;;29.72;42.04;99112.13;105071;1284;113136;-69
2022/05/17 08:22:11;;;;;;;5.20;1.90;;;;;;;30.39;41.80;99109.97;105343;1284;99227;-67
2022/05/17 08:27:32;;;;;;;6.30;2.50;;;;;;;31.35;41.56;99107.34;105213;1284;99274;-67
2022/05/17 08:30:06;;;;;;;3.80;1.50;;;;;;;31.15;41.32;99101.56;105301;1284;99313;-67
2022/05/17 08:35:21;;;;;;;4.50;1.40;;;;;;;30.80;40.29;99102.11;105177;1284;99818;-67
2022/05/17 08:37:51;;;;;;;6.30;1.60;;;;;;;30.67;39.86;99109.21;105179;1284;108451;-66
2022/05/17 08:40:23;;;;;;;8.10;1.70;;;;;;;30.57;39.25;99109.66;105214;1284;99266;-67
2022/05/17 08:43:06;;;;;;;5.10;1.70;;;;;;;30.69;39.04;99103.27;105276;1284;99239;-66
2022/05/17 08:45:52;;;;;;;4.90;1.60;;;;;;;30.83;38.72;99101.23;105143;1284;112804;-68
2022/05/17 08:48:25;;;;;;;4.40;1.70;;;;;;;30.80;38.49;99100.35;105138;1284;99583;-67
2022/05/17 08:50:54;;;;;;;2.50;1.30;;;;;;;30.83;38.02;99097.69;105221;1284;107744;-67
2022/05/17 08:53:23;;;;;;;2.70;1.30;;;;;;;30.85;37.55;99098.20;105020;1284;99240;-67
2022/05/17 08:55:52;;;;;;;5.00;1.30;;;;;;;30.96;37.33;99101.55;105217;1284;99509;-66
2022/05/17 08:58:22;;;;;;;2.40;1.20;;;;;;;31.22;37.04;99098.59;105179;1284;114381;-67
2022/05/17 09:00:57;;;;;;;5.50;1.30;;;;;;;31.13;36.46;99101.11;105227;1284;98579;-68
2022/05/17 09:04:04;;;;;;;3.40;1.40;;;;;;;31.03;36.21;99097.94;105211;1284;106910;-67
2022/05/17 09:07:07;;;;;;;3.10;1.10;;;;;;;31.12;35.76;99101.95;104835;1284;99419;-67
2022/05/17 09:10:14;;;;;;;2.60;1.10;;;;;;;31.06;35.52;99100.57;105219;1284;99353;-69
2022/05/17 09:13:04;;;;;;;4.70;1.60;;;;;;;31.12;35.25;99099.75;105252;1284;113407;-68
2022/05/17 09:15:35;;;;;;;2.20;1.50;;;;;;;31.17;34.91;99095.64;105241;1285;99580;-68
2022/05/17 09:18:10;;;;;;;1.70;1.30;;;;;;;31.29;34.65;99094.73;105231;1284;106841;-66
2022/05/17 09:20:42;;;;;;;8.00;1.80;;;;;;;31.16;34.17;99091.98;105268;1284;99340;-68
2022/05/17 09:23:15;;;;;;;4.50;1.80;;;;;;;31.12;34.19;99098.27;105325;1284;99267;-67
2022/05/17 09:25:43;;;;;;;2.50;1.60;;;;;;;31.00;33.92;99099.26;105067;1285;113274;-70
2022/05/17 09:28:28;;;;;;;3.90;1.30;;;;;;;30.70;33.75;99097.42;105258;1284;98246;-69
2022/05/17 09:31:22;;;;;;;4.80;1.40;;;;;;;30.47;33.48;99090.67;105415;1284;107631;-67
2022/05/17 09:33:53;;;;;;;4.30;1.80;;;;;;;30.24;33.35;99091.21;105135;1285;99301;-67
2022/05/17 09:36:32;;;;;;;3.30;2.00;;;;;;;30.08;32.92;99088.50;105296;1284;100080;-67
2022/05/17 09:39:04;;;;;;;4.40;1.70;;;;;;;29.72;32.59;99087.81;105234;1284;112928;-68
2022/05/17 09:41:39;;;;;;;2.70;1.60;;;;;;;29.48;32.06;99088.59;105308;1284;99999;-65
2022/05/17 09:44:39;;;;;;;4.40;1.70;;;;;;;29.26;32.32;99086.98;105234;1284;108454;-67
2022/05/17 09:47:22;;;;;;;4.40;1.90;;;;;;;29.11;32.14;99084.77;105257;1285;99386;-67
2022/05/17 09:52:59;;;;;;;4.00;1.50;;;;;;;28.73;31.38;99082.14;105189;1285;113436;-70
2022/05/17 09:55:34;;;;;;;3.60;1.50;;;;;;;28.48;31.19;99080.27;105208;1285;97924;-68
2022/05/17 09:58:06;;;;;;;5.10;1.60;;;;;;;28.05;31.21;99079.09;105210;1285;107660;-70
2022/05/17 10:00:43;;;;;;;4.50;1.50;;;;;;;27.81;31.10;99081.34;105279;1284;100359;-68
2022/05/17 10:03:29;;;;;;;4.60;1.20;;;;;;;27.47;30.86;99080.63;105321;1284;99140;-67
2022/05/17 10:06:01;;;;;;;3.50;1.10;;;;;;;27.10;30.67;99075.42;105197;1284;113355;-68
2022/05/17 10:08:59;;;;;;;8.00;1.40;;;;;;;26.84;30.56;99069.06;105172;1287;97197;-67
2022/05/17 10:11:46;;;;;;;6.50;1.70;;;;;;;26.47;30.24;99069.67;105205;1284;108562;-67
2022/05/17 10:14:40;;;;;;;5.20;1.60;;;;;;;26.22;30.13;99068.58;105223;1284;99358;-67
2022/05/17 10:17:19;;;;;;;3.50;1.40;;;;;;;25.88;30.08;99065.73;105360;1284;99232;-66
2022/05/17 10:19:55;;;;;;;5.70;1.50;;;;;;;25.69;29.99;99065.13;105194;1285;112114;-68
2022/05/17 10:22:57;;;;;;;5.30;1.60;;;;;;;25.54;30.02;99063.63;105280;1284;98985;-69
2022/05/17 10:26:01;;;;;;;2.40;0.80;;;;;;;25.48;29.77;99059.39;105307;1284;108336;-67
2022/05/17 10:28:58;;;;;;;3.10;1.50;;;;;;;25.15;29.60;99062.55;105228;1284;99365;-68
2022/05/17 10:31:38;;;;;;;4.60;1.10;;;;;;;25.04;29.57;99059.40;105361;1284;99190;-67
2022/05/17 10:34:25;;;;;;;2.00;1.30;;;;;;;24.95;29.59;99064.19;105289;1284;113213;-68
2022/05/17 10:37:06;;;;;;;9.20;4.00;;;;;;;24.85;29.56;99061.73;105228;1284;99147;-67
2022/05/17 10:40:04;;;;;;;12.70;3.50;;;;;;;24.70;29.34;99062.77;105193;1285;108431;-67
2022/05/17 10:42:38;;;;;;;3.60;2.00;;;;;;;24.50;29.27;99064.14;105154;1284;96787;-67
2022/05/17 10:45:10;;;;;;;4.80;2.00;;;;;;;24.26;29.14;99070.36;105367;1284;99315;-68
2022/05/17 10:47:50;;;;;;;6.90;1.90;;;;;;;24.14;29.19;99066.30;105361;1284;112890;-68
2022/05/17 10:50:29;;;;;;;5.10;1.30;;;;;;;24.09;29.11;99066.95;105320;1284;99407;-69
2022/05/17 10:53:15;;;;;;;2.50;1.10;;;;;;;24.07;29.06;99071.86;105211;1284;107099;-70
2022/05/17 10:55:51;;;;;;;4.10;1.20;;;;;;;24.06;29.06;99070.06;105232;1284;99366;-69
2022/05/17 10:58:49;;;;;;;5.10;1.60;;;;;;;24.06;28.97;99070.70;105238;1287;96697;-70
2022/05/17 11:01:33;;;;;;;4.60;1.30;;;;;;;24.07;29.11;99066.27;105193;1287;111890;-69
2022/05/17 11:04:04;;;;;;;2.90;1.20;;;;;;;24.11;29.07;99065.83;105201;1285;99354;-69
2022/05/17 11:06:48;;;;;;;1.30;0.80;;;;;;;24.13;28.95;99064.63;105219;1284;108314;-68
2022/05/17 11:09:19;;;;;;;;;;;;;;;24.17;29.18;99066.79;105295;1284;96642;-67
2022/05/17 11:12:09;;;;;;;5.00;1.20;;;;;;;24.16;28.98;99063.86;105364;1284;98247;-67
2022/05/17 11:15:03;;;;;;;6.40;1.10;;;;;;;24.16;28.75;99054.29;105216;1284;112335;-69
2022/05/17 11:17:37;;;;;;;5.80;1.60;;;;;;;24.13;28.88;99051.89;105220;1286;99296;-67
2022/05/17 11:20:45;;;;;;;4.90;1.30;;;;;;;24.12;28.85;99048.73;105276;1284;107660;-68
2022/05/17 11:24:00;;;;;;;3.10;1.30;;;;;;;24.08;28.94;99052.05;105198;1284;97665;-67
2022/05/17 11:26:36;;;;;;;3.40;1.20;;;;;;;23.98;28.72;99053.09;105166;1288;97073;-67
2022/05/17 11:29:11;;;;;;;2.60;1.10;;;;;;;23.87;28.68;99054.12;105251;1284;112342;-67
2022/05/17 11:32:15;;;;;;;2.60;1.00;;;;;;;23.81;28.57;99055.27;105464;1284;99217;-69
2022/05/17 11:34:48;;;;;;;5.80;1.10;;;;;;;23.70;28.61;99050.87;105596;1284;108209;-68
2022/05/17 11:37:37;;;;;;;14.10;3.80;;;;;;;23.64;28.66;99055.09;105413;1284;99757;-67
2022/05/17 11:40:08;;;;;;;10.70;2.80;;;;;;;23.57;28.65;99052.78;105219;1284;99205;-67
2022/05/17 11:43:40;;;;;;;7.70;1.80;;;;;;;23.48;28.56;99056.92;105238;1284;112865;-69
2022/05/17 11:45:49;;;;;;;4.20;1.80;;;;;;;23.42;28.75;99053.74;105251;1284;97707;-67
2022/05/17 11:48:22;;;;;;;2.90;1.10;;;;;;;23.32;28.68;99055.66;105277;1284;106448;-67
2022/05/17 11:51:01;;;;;;;6.20;1.40;;;;;;;23.22;28.90;99058.61;105141;1284;99247;-68
2022/05/17 11:53:42;;;;;;;3.50;1.60;;;;;;;23.20;28.74;99055.36;105084;1287;99253;-67
2022/05/17 11:56:19;;;;;;;6.50;1.90;;;;;;;23.25;28.90;99052.41;105203;1284;113683;-68
2022/05/17 11:58:51;;;;;;;5.30;2.00;;;;;;;23.30;28.73;99052.35;105202;1284;99231;-68
2022/05/17 12:01:31;;;;;;;9.30;2.10;;;;;;;23.32;28.61;99051.48;105343;1284;107839;-67
2022/05/17 12:04:07;;;;;;;9.60;1.60;;;;;;;23.27;28.73;99052.70;105396;1283;99698;-67